Terminal Aerodrome Forecast
Issued by NWS

Home | Current Version | Previous Version | Text Only | Print | Product List | Glossary On
Versions: 1 2 3 4 5 6 7 8 9 10 11 12 13 14 15 16 17 18 19 20 21 22 23 24 25 26 27 28 29 30 31 32 33 34 35 36
000
FTUS45 KTFX 190536
TAFGTF
TAF
KGTF 190536Z 1906/2006 24018KT P6SM FEW090 SCT180 WS020/28035KT
     FM191200 22017G26KT P6SM SCT080 BKN180 WS020/27040KT
     FM191800 23023G35KT P6SM SCT070 BKN110
     FM200000 26015G25KT P6SM SCT060 BKN100 PROB30 2000/2006
      VRB20G35KT 4SM TSRA BKN060CB=

USA.gov is the U.S. government's official web portal to all federal, state and local government web resources and services.